sensor_id;sensor_type;location;lat;lon;timestamp;P1;durP1;ratioP1;P2;durP2;ratioP2
11084;SDS011;5596;46.826;8.650;2023-02-15T00:00:27;101.63;;;66.03;;
11084;SDS011;5596;46.826;8.650;2023-02-15T00:02:54;18.73;;;11.77;;
11084;SDS011;5596;46.826;8.650;2023-02-15T00:05:22;9.30;;;4.53;;
11084;SDS011;5596;46.826;8.650;2023-02-15T00:07:49;9.57;;;5.10;;
11084;SDS011;5596;46.826;8.650;2023-02-15T00:10:15;18.67;;;7.90;;
11084;SDS011;5596;46.826;8.650;2023-02-15T00:12:42;13.63;;;7.63;;
11084;SDS011;5596;46.826;8.650;2023-02-15T00:15:09;20.90;;;5.00;;
11084;SDS011;5596;46.826;8.650;2023-02-15T00:17:38;10.83;;;4.27;;
11084;SDS011;5596;46.826;8.650;2023-02-15T00:20:05;38.10;;;15.27;;
11084;SDS011;5596;46.826;8.650;2023-02-15T00:22:33;8.13;;;4.23;;
11084;SDS011;5596;46.826;8.650;2023-02-15T00:25:00;60.33;;;39.93;;
11084;SDS011;5596;46.826;8.650;2023-02-15T00:27:27;23.87;;;12.27;;
11084;SDS011;5596;46.826;8.650;2023-02-15T00:29:54;14.37;;;5.63;;
11084;SDS011;5596;46.826;8.650;2023-02-15T00:32:20;14.97;;;7.43;;
11084;SDS011;5596;46.826;8.650;2023-02-15T00:34:48;9.20;;;4.40;;
11084;SDS011;5596;46.826;8.650;2023-02-15T00:37:15;78.33;;;44.93;;
11084;SDS011;5596;46.826;8.650;2023-02-15T00:39:47;143.80;;;83.30;;
11084;SDS011;5596;46.826;8.650;2023-02-15T00:42:15;353.23;;;204.47;;
11084;SDS011;5596;46.826;8.650;2023-02-15T00:44:42;133.27;;;75.97;;
11084;SDS011;5596;46.826;8.650;2023-02-15T00:47:09;8.43;;;4.37;;
11084;SDS011;5596;46.826;8.650;2023-02-15T00:49:36;13.00;;;7.43;;
11084;SDS011;5596;46.826;8.650;2023-02-15T00:52:03;111.77;;;79.30;;
11084;SDS011;5596;46.826;8.650;2023-02-15T00:54:29;7.20;;;4.37;;
11084;SDS011;5596;46.826;8.650;2023-02-15T00:56:57;9.70;;;4.10;;
11084;SDS011;5596;46.826;8.650;2023-02-15T00:59:24;6.63;;;4.27;;
11084;SDS011;5596;46.826;8.650;2023-02-15T01:01:51;7.10;;;4.70;;
11084;SDS011;5596;46.826;8.650;2023-02-15T01:04:18;7.87;;;4.33;;
11084;SDS011;5596;46.826;8.650;2023-02-15T01:06:45;7.03;;;4.07;;
11084;SDS011;5596;46.826;8.650;2023-02-15T01:09:11;6.63;;;4.13;;
11084;SDS011;5596;46.826;8.650;2023-02-15T01:11:38;7.93;;;4.43;;
11084;SDS011;5596;46.826;8.650;2023-02-15T01:14:06;8.07;;;4.40;;
11084;SDS011;5596;46.826;8.650;2023-02-15T01:16:37;12.53;;;4.77;;
11084;SDS011;5596;46.826;8.650;2023-02-15T01:19:05;8.03;;;4.77;;
11084;SDS011;5596;46.826;8.650;2023-02-15T01:21:32;7.87;;;4.97;;
11084;SDS011;5596;46.826;8.650;2023-02-15T01:23:59;8.73;;;5.00;;
11084;SDS011;5596;46.826;8.650;2023-02-15T01:26:27;12.20;;;5.87;;
11084;SDS011;5596;46.826;8.650;2023-02-15T01:28:53;10.10;;;5.20;;
11084;SDS011;5596;46.826;8.650;2023-02-15T01:31:23;9.40;;;5.87;;
11084;SDS011;5596;46.826;8.650;2023-02-15T01:33:50;10.93;;;6.27;;
11084;SDS011;5596;46.826;8.650;2023-02-15T01:36:16;10.77;;;5.60;;
11084;SDS011;5596;46.826;8.650;2023-02-15T01:38:44;8.70;;;5.13;;
11084;SDS011;5596;46.826;8.650;2023-02-15T01:41:10;9.63;;;5.77;;
11084;SDS011;5596;46.826;8.650;2023-02-15T01:43:49;9.47;;;5.80;;
11084;SDS011;5596;46.826;8.650;2023-02-15T01:46:18;12.33;;;6.80;;
11084;SDS011;5596;46.826;8.650;2023-02-15T01:48:50;15.80;;;7.43;;
11084;SDS011;5596;46.826;8.650;2023-02-15T01:51:20;19.43;;;8.57;;
11084;SDS011;5596;46.826;8.650;2023-02-15T01:53:48;17.60;;;8.13;;
11084;SDS011;5596;46.826;8.650;2023-02-15T01:56:17;20.47;;;9.07;;
11084;SDS011;5596;46.826;8.650;2023-02-15T01:58:48;24.57;;;10.00;;
11084;SDS011;5596;46.826;8.650;2023-02-15T02:01:16;21.43;;;9.67;;
11084;SDS011;5596;46.826;8.650;2023-02-15T02:03:44;27.00;;;10.10;;
11084;SDS011;5596;46.826;8.650;2023-02-15T02:06:16;27.27;;;11.10;;
11084;SDS011;5596;46.826;8.650;2023-02-15T02:08:43;27.27;;;12.37;;
11084;SDS011;5596;46.826;8.650;2023-02-15T02:11:11;48.30;;;12.87;;
11084;SDS011;5596;46.826;8.650;2023-02-15T02:13:38;43.57;;;14.37;;
11084;SDS011;5596;46.826;8.650;2023-02-15T02:16:08;62.90;;;12.63;;
11084;SDS011;5596;46.826;8.650;2023-02-15T02:18:41;45.80;;;12.70;;
11084;SDS011;5596;46.826;8.650;2023-02-15T02:21:27;46.10;;;11.43;;
11084;SDS011;5596;46.826;8.650;2023-02-15T02:24:01;40.07;;;10.63;;
11084;SDS011;5596;46.826;8.650;2023-02-15T02:26:42;29.27;;;9.93;;
11084;SDS011;5596;46.826;8.650;2023-02-15T02:29:33;23.37;;;10.53;;
11084;SDS011;5596;46.826;8.650;2023-02-15T02:32:14;21.20;;;10.43;;
11084;SDS011;5596;46.826;8.650;2023-02-15T02:34:47;22.27;;;10.70;;
11084;SDS011;5596;46.826;8.650;2023-02-15T02:37:17;25.50;;;11.17;;
11084;SDS011;5596;46.826;8.650;2023-02-15T02:39:47;19.67;;;10.57;;
11084;SDS011;5596;46.826;8.650;2023-02-15T02:42:17;23.73;;;10.87;;
11084;SDS011;5596;46.826;8.650;2023-02-15T02:44:46;18.73;;;10.53;;
11084;SDS011;5596;46.826;8.650;2023-02-15T02:47:16;20.13;;;10.37;;
11084;SDS011;5596;46.826;8.650;2023-02-15T02:49:47;21.43;;;11.33;;
11084;SDS011;5596;46.826;8.650;2023-02-15T02:55:05;21.63;;;10.40;;
11084;SDS011;5596;46.826;8.650;2023-02-15T02:57:32;19.60;;;10.77;;
11084;SDS011;5596;46.826;8.650;2023-02-15T03:00:01;25.40;;;11.47;;
11084;SDS011;5596;46.826;8.650;2023-02-15T03:02:31;18.77;;;10.90;;
11084;SDS011;5596;46.826;8.650;2023-02-15T03:05:03;26.67;;;11.00;;
11084;SDS011;5596;46.826;8.650;2023-02-15T03:07:32;17.70;;;10.63;;
11084;SDS011;5596;46.826;8.650;2023-02-15T03:10:02;19.30;;;10.77;;
11084;SDS011;5596;46.826;8.650;2023-02-15T03:12:30;20.27;;;10.07;;
11084;SDS011;5596;46.826;8.650;2023-02-15T03:15:00;18.17;;;10.07;;
11084;SDS011;5596;46.826;8.650;2023-02-15T03:17:33;42.73;;;10.43;;
11084;SDS011;5596;46.826;8.650;2023-02-15T03:20:04;17.23;;;9.77;;
11084;SDS011;5596;46.826;8.650;2023-02-15T03:22:33;24.70;;;11.80;;
11084;SDS011;5596;46.826;8.650;2023-02-15T03:25:02;20.43;;;10.30;;
11084;SDS011;5596;46.826;8.650;2023-02-15T03:27:31;22.50;;;11.23;;
11084;SDS011;5596;46.826;8.650;2023-02-15T03:30:00;29.93;;;11.07;;
11084;SDS011;5596;46.826;8.650;2023-02-15T03:32:28;25.47;;;11.07;;
11084;SDS011;5596;46.826;8.650;2023-02-15T03:34:56;49.00;;;14.70;;
11084;SDS011;5596;46.826;8.650;2023-02-15T03:37:26;28.23;;;12.57;;
11084;SDS011;5596;46.826;8.650;2023-02-15T03:39:54;49.67;;;12.73;;
11084;SDS011;5596;46.826;8.650;2023-02-15T03:42:42;77.47;;;13.40;;
11084;SDS011;5596;46.826;8.650;2023-02-15T03:45:10;86.83;;;12.53;;
11084;SDS011;5596;46.826;8.650;2023-02-15T03:47:38;104.33;;;13.90;;
11084;SDS011;5596;46.826;8.650;2023-02-15T03:50:07;44.90;;;12.40;;
11084;SDS011;5596;46.826;8.650;2023-02-15T03:52:56;185.37;;;111.80;;
11084;SDS011;5596;46.826;8.650;2023-02-15T03:55:23;67.53;;;13.03;;
11084;SDS011;5596;46.826;8.650;2023-02-15T03:57:49;274.70;;;122.20;;
11084;SDS011;5596;46.826;8.650;2023-02-15T04:00:34;88.00;;;21.43;;
11084;SDS011;5596;46.826;8.650;2023-02-15T04:03:22;23.17;;;10.30;;
11084;SDS011;5596;46.826;8.650;2023-02-15T04:05:49;187.77;;;106.67;;
11084;SDS011;5596;46.826;8.650;2023-02-15T04:08:17;35.17;;;15.87;;
11084;SDS011;5596;46.826;8.650;2023-02-15T04:10:44;121.40;;;67.37;;
11084;SDS011;5596;46.826;8.650;2023-02-15T04:13:20;19.43;;;10.60;;
11084;SDS011;5596;46.826;8.650;2023-02-15T04:15:47;21.50;;;10.70;;
11084;SDS011;5596;46.826;8.650;2023-02-15T04:18:28;22.50;;;10.27;;
11084;SDS011;5596;46.826;8.650;2023-02-15T04:21:12;26.37;;;10.17;;
11084;SDS011;5596;46.826;8.650;2023-02-15T04:23:58;24.87;;;10.47;;
11084;SDS011;5596;46.826;8.650;2023-02-15T04:26:42;22.73;;;10.07;;
11084;SDS011;5596;46.826;8.650;2023-02-15T04:29:10;21.23;;;10.13;;
11084;SDS011;5596;46.826;8.650;2023-02-15T04:31:36;19.70;;;10.00;;
11084;SDS011;5596;46.826;8.650;2023-02-15T04:34:03;21.87;;;9.73;;
11084;SDS011;5596;46.826;8.650;2023-02-15T04:36:30;17.63;;;10.10;;
11084;SDS011;5596;46.826;8.650;2023-02-15T04:38:57;17.10;;;10.13;;
11084;SDS011;5596;46.826;8.650;2023-02-15T04:41:24;23.90;;;9.50;;
11084;SDS011;5596;46.826;8.650;2023-02-15T04:43:51;19.27;;;9.90;;
11084;SDS011;5596;46.826;8.650;2023-02-15T04:46:18;18.93;;;10.27;;
11084;SDS011;5596;46.826;8.650;2023-02-15T04:48:44;42.50;;;10.13;;
11084;SDS011;5596;46.826;8.650;2023-02-15T04:51:11;26.00;;;10.30;;
11084;SDS011;5596;46.826;8.650;2023-02-15T04:53:37;71.47;;;26.70;;
11084;SDS011;5596;46.826;8.650;2023-02-15T04:56:05;63.43;;;11.80;;
11084;SDS011;5596;46.826;8.650;2023-02-15T04:58:32;64.70;;;12.10;;
11084;SDS011;5596;46.826;8.650;2023-02-15T05:01:00;90.37;;;11.57;;
11084;SDS011;5596;46.826;8.650;2023-02-15T05:03:27;45.57;;;11.17;;
11084;SDS011;5596;46.826;8.650;2023-02-15T05:05:53;25.67;;;10.07;;
11084;SDS011;5596;46.826;8.650;2023-02-15T05:08:20;128.90;;;41.60;;
11084;SDS011;5596;46.826;8.650;2023-02-15T05:10:47;475.50;;;345.67;;
11084;SDS011;5596;46.826;8.650;2023-02-15T05:13:15;329.80;;;285.57;;
11084;SDS011;5596;46.826;8.650;2023-02-15T05:15:46;499.23;;;393.53;;
11084;SDS011;5596;46.826;8.650;2023-02-15T05:18:12;505.37;;;270.63;;
11084;SDS011;5596;46.826;8.650;2023-02-15T05:20:39;458.20;;;235.73;;
11084;SDS011;5596;46.826;8.650;2023-02-15T05:23:06;441.63;;;284.10;;
11084;SDS011;5596;46.826;8.650;2023-02-15T05:25:33;188.57;;;136.93;;
11084;SDS011;5596;46.826;8.650;2023-02-15T05:28:19;468.67;;;308.23;;
11084;SDS011;5596;46.826;8.650;2023-02-15T05:30:46;166.67;;;87.60;;
11084;SDS011;5596;46.826;8.650;2023-02-15T05:33:12;325.30;;;129.73;;
11084;SDS011;5596;46.826;8.650;2023-02-15T05:35:39;451.87;;;202.23;;
11084;SDS011;5596;46.826;8.650;2023-02-15T05:38:06;494.13;;;209.40;;
11084;SDS011;5596;46.826;8.650;2023-02-15T05:40:33;402.20;;;166.83;;
11084;SDS011;5596;46.826;8.650;2023-02-15T05:43:00;500.00;;;325.70;;
11084;SDS011;5596;46.826;8.650;2023-02-15T05:45:28;659.20;;;479.37;;
11084;SDS011;5596;46.826;8.650;2023-02-15T05:47:55;644.87;;;522.23;;
11084;SDS011;5596;46.826;8.650;2023-02-15T05:50:23;705.83;;;620.00;;
11084;SDS011;5596;46.826;8.650;2023-02-15T05:52:49;224.27;;;202.43;;
11084;SDS011;5596;46.826;8.650;2023-02-15T05:55:16;560.23;;;500.10;;
11084;SDS011;5596;46.826;8.650;2023-02-15T05:57:43;32.97;;;18.13;;
11084;SDS011;5596;46.826;8.650;2023-02-15T06:00:10;565.70;;;420.87;;
11084;SDS011;5596;46.826;8.650;2023-02-15T06:02:39;484.17;;;361.30;;
11084;SDS011;5596;46.826;8.650;2023-02-15T06:05:06;427.37;;;111.67;;
11084;SDS011;5596;46.826;8.650;2023-02-15T06:07:33;436.23;;;135.57;;
11084;SDS011;5596;46.826;8.650;2023-02-15T06:09:59;523.30;;;337.80;;
11084;SDS011;5596;46.826;8.650;2023-02-15T06:12:26;506.07;;;272.93;;
11084;SDS011;5596;46.826;8.650;2023-02-15T06:14:53;455.93;;;179.73;;
11084;SDS011;5596;46.826;8.650;2023-02-15T06:17:21;488.50;;;272.70;;
11084;SDS011;5596;46.826;8.650;2023-02-15T06:19:49;392.83;;;126.13;;
11084;SDS011;5596;46.826;8.650;2023-02-15T06:22:16;554.43;;;484.97;;
11084;SDS011;5596;46.826;8.650;2023-02-15T06:24:42;466.43;;;391.43;;
11084;SDS011;5596;46.826;8.650;2023-02-15T06:27:09;400.70;;;199.73;;
11084;SDS011;5596;46.826;8.650;2023-02-15T06:29:36;482.60;;;288.83;;
11084;SDS011;5596;46.826;8.650;2023-02-15T06:32:03;297.87;;;199.20;;
11084;SDS011;5596;46.826;8.650;2023-02-15T06:34:29;588.07;;;512.27;;
11084;SDS011;5596;46.826;8.650;2023-02-15T06:36:58;746.27;;;647.53;;
11084;SDS011;5596;46.826;8.650;2023-02-15T06:39:25;502.00;;;383.97;;
11084;SDS011;5596;46.826;8.650;2023-02-15T06:41:52;508.93;;;309.67;;
11084;SDS011;5596;46.826;8.650;2023-02-15T06:44:19;492.53;;;232.67;;
11084;SDS011;5596;46.826;8.650;2023-02-15T06:46:45;372.47;;;319.73;;
11084;SDS011;5596;46.826;8.650;2023-02-15T06:49:12;80.20;;;42.23;;
11084;SDS011;5596;46.826;8.650;2023-02-15T06:51:39;390.47;;;351.77;;
11084;SDS011;5596;46.826;8.650;2023-02-15T06:54:07;442.87;;;393.80;;
11084;SDS011;5596;46.826;8.650;2023-02-15T06:56:34;16.57;;;10.20;;
11084;SDS011;5596;46.826;8.650;2023-02-15T06:59:01;17.83;;;9.27;;
11084;SDS011;5596;46.826;8.650;2023-02-15T07:01:27;15.17;;;9.37;;
11084;SDS011;5596;46.826;8.650;2023-02-15T07:03:54;12.83;;;9.40;;
11084;SDS011;5596;46.826;8.650;2023-02-15T07:06:21;17.33;;;9.37;;
11084;SDS011;5596;46.826;8.650;2023-02-15T07:08:47;15.90;;;9.10;;
11084;SDS011;5596;46.826;8.650;2023-02-15T07:11:16;14.20;;;9.90;;
11084;SDS011;5596;46.826;8.650;2023-02-15T07:14:00;15.23;;;9.53;;
11084;SDS011;5596;46.826;8.650;2023-02-15T07:16:26;16.80;;;8.97;;
11084;SDS011;5596;46.826;8.650;2023-02-15T07:18:53;14.23;;;9.27;;
11084;SDS011;5596;46.826;8.650;2023-02-15T07:21:20;13.30;;;8.90;;
11084;SDS011;5596;46.826;8.650;2023-02-15T07:23:46;14.67;;;8.93;;
11084;SDS011;5596;46.826;8.650;2023-02-15T07:26:13;14.07;;;8.33;;
11084;SDS011;5596;46.826;8.650;2023-02-15T07:28:42;30.77;;;19.53;;
11084;SDS011;5596;46.826;8.650;2023-02-15T07:31:09;15.67;;;10.17;;
11084;SDS011;5596;46.826;8.650;2023-02-15T07:33:36;12.77;;;8.57;;
11084;SDS011;5596;46.826;8.650;2023-02-15T07:36:03;18.90;;;12.13;;
11084;SDS011;5596;46.826;8.650;2023-02-15T07:38:31;14.60;;;9.60;;
11084;SDS011;5596;46.826;8.650;2023-02-15T07:40:59;12.17;;;8.20;;
11084;SDS011;5596;46.826;8.650;2023-02-15T07:43:26;15.17;;;9.20;;
11084;SDS011;5596;46.826;8.650;2023-02-15T07:45:54;12.53;;;8.70;;
11084;SDS011;5596;46.826;8.650;2023-02-15T07:48:21;11.77;;;8.83;;
11084;SDS011;5596;46.826;8.650;2023-02-15T07:50:47;14.73;;;10.47;;
11084;SDS011;5596;46.826;8.650;2023-02-15T07:53:14;13.53;;;9.83;;
11084;SDS011;5596;46.826;8.650;2023-02-15T07:55:41;13.27;;;8.97;;
11084;SDS011;5596;46.826;8.650;2023-02-15T07:58:07;15.90;;;10.20;;
11084;SDS011;5596;46.826;8.650;2023-02-15T08:00:34;14.00;;;9.97;;
11084;SDS011;5596;46.826;8.650;2023-02-15T08:03:23;15.00;;;9.97;;
11084;SDS011;5596;46.826;8.650;2023-02-15T08:05:55;17.73;;;10.47;;
11084;SDS011;5596;46.826;8.650;2023-02-15T08:08:22;18.97;;;11.03;;
11084;SDS011;5596;46.826;8.650;2023-02-15T08:10:58;17.53;;;11.27;;
11084;SDS011;5596;46.826;8.650;2023-02-15T08:13:42;21.10;;;11.80;;
11084;SDS011;5596;46.826;8.650;2023-02-15T08:16:19;16.03;;;10.77;;
11084;SDS011;5596;46.826;8.650;2023-02-15T08:18:47;16.97;;;11.37;;
11084;SDS011;5596;46.826;8.650;2023-02-15T08:21:14;18.07;;;11.23;;
11084;SDS011;5596;46.826;8.650;2023-02-15T08:23:41;54.83;;;32.50;;
11084;SDS011;5596;46.826;8.650;2023-02-15T08:26:08;106.00;;;40.70;;
11084;SDS011;5596;46.826;8.650;2023-02-15T08:28:34;323.87;;;293.63;;
11084;SDS011;5596;46.826;8.650;2023-02-15T08:31:04;17.50;;;10.73;;
11084;SDS011;5596;46.826;8.650;2023-02-15T08:33:31;18.67;;;12.80;;
11084;SDS011;5596;46.826;8.650;2023-02-15T08:36:03;21.23;;;14.03;;
11084;SDS011;5596;46.826;8.650;2023-02-15T08:38:30;22.43;;;13.03;;
11084;SDS011;5596;46.826;8.650;2023-02-15T08:40:57;24.77;;;13.07;;
11084;SDS011;5596;46.826;8.650;2023-02-15T08:43:24;22.93;;;15.50;;
11084;SDS011;5596;46.826;8.650;2023-02-15T08:45:50;546.60;;;491.90;;
11084;SDS011;5596;46.826;8.650;2023-02-15T08:48:17;17.43;;;11.77;;
11084;SDS011;5596;46.826;8.650;2023-02-15T08:50:44;19.90;;;11.43;;
11084;SDS011;5596;46.826;8.650;2023-02-15T08:53:12;17.17;;;11.40;;
11084;SDS011;5596;46.826;8.650;2023-02-15T08:55:39;17.43;;;11.20;;
11084;SDS011;5596;46.826;8.650;2023-02-15T08:58:06;21.20;;;12.47;;
11084;SDS011;5596;46.826;8.650;2023-02-15T09:00:33;19.63;;;11.87;;
11084;SDS011;5596;46.826;8.650;2023-02-15T09:02:59;23.77;;;12.43;;
11084;SDS011;5596;46.826;8.650;2023-02-15T09:05:26;18.70;;;11.33;;
11084;SDS011;5596;46.826;8.650;2023-02-15T09:07:53;21.60;;;13.27;;
11084;SDS011;5596;46.826;8.650;2023-02-15T09:10:21;23.67;;;13.90;;
11084;SDS011;5596;46.826;8.650;2023-02-15T09:12:48;22.73;;;14.00;;
11084;SDS011;5596;46.826;8.650;2023-02-15T09:15:16;22.30;;;13.37;;
11084;SDS011;5596;46.826;8.650;2023-02-15T09:17:43;19.43;;;12.90;;
11084;SDS011;5596;46.826;8.650;2023-02-15T09:20:09;23.93;;;12.70;;
11084;SDS011;5596;46.826;8.650;2023-02-15T09:22:37;22.57;;;12.73;;
11084;SDS011;5596;46.826;8.650;2023-02-15T09:25:03;18.97;;;11.80;;
11084;SDS011;5596;46.826;8.650;2023-02-15T09:27:32;17.10;;;11.17;;
11084;SDS011;5596;46.826;8.650;2023-02-15T09:29:59;19.43;;;12.07;;
11084;SDS011;5596;46.826;8.650;2023-02-15T09:32:26;41.27;;;21.93;;
11084;SDS011;5596;46.826;8.650;2023-02-15T09:34:53;19.13;;;11.70;;
11084;SDS011;5596;46.826;8.650;2023-02-15T09:37:20;15.80;;;11.10;;
11084;SDS011;5596;46.826;8.650;2023-02-15T09:39:46;18.07;;;11.57;;
11084;SDS011;5596;46.826;8.650;2023-02-15T09:42:20;21.87;;;11.33;;
11084;SDS011;5596;46.826;8.650;2023-02-15T09:45:03;21.67;;;12.00;;
11084;SDS011;5596;46.826;8.650;2023-02-15T09:47:38;22.50;;;12.73;;
11084;SDS011;5596;46.826;8.650;2023-02-15T09:50:08;21.87;;;11.57;;
11084;SDS011;5596;46.826;8.650;2023-02-15T09:52:50;18.77;;;10.97;;
11084;SDS011;5596;46.826;8.650;2023-02-15T09:55:33;21.03;;;11.17;;
11084;SDS011;5596;46.826;8.650;2023-02-15T09:58:05;29.20;;;15.20;;
11084;SDS011;5596;46.826;8.650;2023-02-15T10:00:38;22.43;;;11.53;;
11084;SDS011;5596;46.826;8.650;2023-02-15T10:03:13;15.60;;;8.87;;
11084;SDS011;5596;46.826;8.650;2023-02-15T10:05:43;17.03;;;10.20;;
11084;SDS011;5596;46.826;8.650;2023-02-15T10:08:25;23.17;;;10.73;;
11084;SDS011;5596;46.826;8.650;2023-02-15T10:10:57;21.83;;;10.10;;
11084;SDS011;5596;46.826;8.650;2023-02-15T10:13:48;15.13;;;9.57;;
11084;SDS011;5596;46.826;8.650;2023-02-15T10:16:22;16.03;;;10.37;;
11084;SDS011;5596;46.826;8.650;2023-02-15T10:18:54;18.20;;;10.37;;
11084;SDS011;5596;46.826;8.650;2023-02-15T10:21:24;12.67;;;8.60;;
11084;SDS011;5596;46.826;8.650;2023-02-15T10:24:09;22.70;;;10.33;;
11084;SDS011;5596;46.826;8.650;2023-02-15T10:26:40;20.13;;;9.83;;
11084;SDS011;5596;46.826;8.650;2023-02-15T10:29:10;16.00;;;9.77;;
11084;SDS011;5596;46.826;8.650;2023-02-15T10:31:45;17.27;;;9.03;;
11084;SDS011;5596;46.826;8.650;2023-02-15T10:34:15;15.80;;;9.93;;
11084;SDS011;5596;46.826;8.650;2023-02-15T10:36:47;17.43;;;9.67;;
11084;SDS011;5596;46.826;8.650;2023-02-15T10:39:20;16.50;;;10.10;;
11084;SDS011;5596;46.826;8.650;2023-02-15T10:41:50;18.67;;;9.80;;
11084;SDS011;5596;46.826;8.650;2023-02-15T10:44:24;20.67;;;10.67;;
11084;SDS011;5596;46.826;8.650;2023-02-15T10:46:59;13.47;;;8.77;;
11084;SDS011;5596;46.826;8.650;2023-02-15T10:49:39;13.20;;;8.87;;
11084;SDS011;5596;46.826;8.650;2023-02-15T10:52:13;14.07;;;9.10;;
11084;SDS011;5596;46.826;8.650;2023-02-15T10:54:43;13.83;;;9.60;;
11084;SDS011;5596;46.826;8.650;2023-02-15T10:57:12;13.90;;;8.20;;
11084;SDS011;5596;46.826;8.650;2023-02-15T10:59:50;15.57;;;9.47;;
11084;SDS011;5596;46.826;8.650;2023-02-15T11:02:25;15.60;;;9.53;;
11084;SDS011;5596;46.826;8.650;2023-02-15T11:05:00;13.80;;;8.17;;
11084;SDS011;5596;46.826;8.650;2023-02-15T11:07:31;13.47;;;9.03;;
11084;SDS011;5596;46.826;8.650;2023-02-15T11:10:01;13.13;;;9.37;;
11084;SDS011;5596;46.826;8.650;2023-02-15T11:12:32;16.93;;;9.67;;
11084;SDS011;5596;46.826;8.650;2023-02-15T11:15:00;17.87;;;9.20;;
11084;SDS011;5596;46.826;8.650;2023-02-15T11:17:30;19.47;;;9.47;;
11084;SDS011;5596;46.826;8.650;2023-02-15T11:20:02;12.90;;;9.10;;
11084;SDS011;5596;46.826;8.650;2023-02-15T11:22:31;13.80;;;8.83;;
11084;SDS011;5596;46.826;8.650;2023-02-15T11:24:58;15.33;;;9.20;;
11084;SDS011;5596;46.826;8.650;2023-02-15T11:27:28;17.00;;;10.00;;
11084;SDS011;5596;46.826;8.650;2023-02-15T11:29:57;16.00;;;9.47;;
11084;SDS011;5596;46.826;8.650;2023-02-15T11:32:26;15.10;;;9.30;;
11084;SDS011;5596;46.826;8.650;2023-02-15T11:34:56;13.70;;;9.70;;
11084;SDS011;5596;46.826;8.650;2023-02-15T11:37:28;15.27;;;9.47;;
11084;SDS011;5596;46.826;8.650;2023-02-15T11:39:57;15.23;;;8.80;;
11084;SDS011;5596;46.826;8.650;2023-02-15T11:42:25;14.80;;;9.73;;
11084;SDS011;5596;46.826;8.650;2023-02-15T11:44:56;14.97;;;9.13;;
11084;SDS011;5596;46.826;8.650;2023-02-15T11:47:25;14.93;;;9.30;;
11084;SDS011;5596;46.826;8.650;2023-02-15T11:49:52;13.97;;;9.67;;
11084;SDS011;5596;46.826;8.650;2023-02-15T11:52:20;12.70;;;8.90;;
11084;SDS011;5596;46.826;8.650;2023-02-15T11:54:48;11.80;;;8.67;;
11084;SDS011;5596;46.826;8.650;2023-02-15T11:57:17;15.80;;;9.80;;
11084;SDS011;5596;46.826;8.650;2023-02-15T11:59:46;16.80;;;9.60;;
11084;SDS011;5596;46.826;8.650;2023-02-15T12:02:15;18.10;;;10.33;;
11084;SDS011;5596;46.826;8.650;2023-02-15T12:04:43;13.47;;;9.70;;
11084;SDS011;5596;46.826;8.650;2023-02-15T12:07:12;13.63;;;9.50;;
11084;SDS011;5596;46.826;8.650;2023-02-15T12:09:45;14.50;;;9.87;;
11084;SDS011;5596;46.826;8.650;2023-02-15T12:12:23;14.70;;;9.90;;
11084;SDS011;5596;46.826;8.650;2023-02-15T12:14:51;12.83;;;9.00;;
11084;SDS011;5596;46.826;8.650;2023-02-15T12:17:18;15.77;;;9.73;;
11084;SDS011;5596;46.826;8.650;2023-02-15T12:19:47;14.03;;;9.40;;
11084;SDS011;5596;46.826;8.650;2023-02-15T12:22:22;14.30;;;9.77;;
11084;SDS011;5596;46.826;8.650;2023-02-15T12:24:52;12.70;;;9.63;;
11084;SDS011;5596;46.826;8.650;2023-02-15T12:27:21;16.40;;;10.37;;
11084;SDS011;5596;46.826;8.650;2023-02-15T12:29:49;14.27;;;10.07;;
11084;SDS011;5596;46.826;8.650;2023-02-15T12:32:17;18.00;;;10.63;;
11084;SDS011;5596;46.826;8.650;2023-02-15T12:34:44;14.13;;;9.70;;
11084;SDS011;5596;46.826;8.650;2023-02-15T12:37:15;16.80;;;10.30;;
11084;SDS011;5596;46.826;8.650;2023-02-15T12:39:50;14.93;;;9.47;;
11084;SDS011;5596;46.826;8.650;2023-02-15T12:42:20;14.67;;;9.33;;
11084;SDS011;5596;46.826;8.650;2023-02-15T12:44:54;12.57;;;9.33;;
11084;SDS011;5596;46.826;8.650;2023-02-15T12:47:21;13.07;;;9.50;;
11084;SDS011;5596;46.826;8.650;2023-02-15T12:52:43;16.60;;;9.57;;
11084;SDS011;5596;46.826;8.650;2023-02-15T12:55:11;14.23;;;9.57;;
11084;SDS011;5596;46.826;8.650;2023-02-15T12:57:39;17.57;;;10.23;;
11084;SDS011;5596;46.826;8.650;2023-02-15T13:00:20;12.77;;;9.40;;
11084;SDS011;5596;46.826;8.650;2023-02-15T13:02:51;15.23;;;9.83;;
11084;SDS011;5596;46.826;8.650;2023-02-15T13:05:19;14.80;;;9.17;;
11084;SDS011;5596;46.826;8.650;2023-02-15T13:07:49;14.73;;;9.17;;
11084;SDS011;5596;46.826;8.650;2023-02-15T13:10:22;15.03;;;8.23;;
11084;SDS011;5596;46.826;8.650;2023-02-15T13:12:52;13.20;;;9.03;;
11084;SDS011;5596;46.826;8.650;2023-02-15T13:15:27;12.67;;;9.30;;
11084;SDS011;5596;46.826;8.650;2023-02-15T13:17:55;13.80;;;9.70;;
11084;SDS011;5596;46.826;8.650;2023-02-15T13:20:23;17.23;;;9.67;;
11084;SDS011;5596;46.826;8.650;2023-02-15T13:22:52;12.93;;;9.03;;
11084;SDS011;5596;46.826;8.650;2023-02-15T13:25:20;14.60;;;9.37;;
11084;SDS011;5596;46.826;8.650;2023-02-15T13:27:50;12.03;;;8.97;;
11084;SDS011;5596;46.826;8.650;2023-02-15T13:30:27;12.07;;;9.53;;
11084;SDS011;5596;46.826;8.650;2023-02-15T13:32:57;14.17;;;9.00;;
11084;SDS011;5596;46.826;8.650;2023-02-15T13:35:25;13.03;;;9.50;;
11084;SDS011;5596;46.826;8.650;2023-02-15T13:38:01;21.17;;;10.40;;
11084;SDS011;5596;46.826;8.650;2023-02-15T13:40:30;34.77;;;11.40;;
11084;SDS011;5596;46.826;8.650;2023-02-15T13:43:00;26.83;;;11.30;;
11084;SDS011;5596;46.826;8.650;2023-02-15T13:45:38;24.70;;;10.53;;
11084;SDS011;5596;46.826;8.650;2023-02-15T13:48:10;19.43;;;9.63;;
11084;SDS011;5596;46.826;8.650;2023-02-15T13:50:43;17.03;;;9.50;;
11084;SDS011;5596;46.826;8.650;2023-02-15T13:53:17;17.00;;;9.30;;
11084;SDS011;5596;46.826;8.650;2023-02-15T13:55:49;11.73;;;9.03;;
11084;SDS011;5596;46.826;8.650;2023-02-15T14:01:11;12.33;;;8.53;;
11084;SDS011;5596;46.826;8.650;2023-02-15T14:03:52;12.70;;;8.17;;
11084;SDS011;5596;46.826;8.650;2023-02-15T14:09:09;15.20;;;8.27;;
11084;SDS011;5596;46.826;8.650;2023-02-15T14:11:39;16.70;;;10.03;;
11084;SDS011;5596;46.826;8.650;2023-02-15T14:16:53;20.10;;;10.53;;
11084;SDS011;5596;46.826;8.650;2023-02-15T14:19:24;16.07;;;9.93;;
11084;SDS011;5596;46.826;8.650;2023-02-15T14:21:53;18.40;;;11.03;;
11084;SDS011;5596;46.826;8.650;2023-02-15T14:24:28;17.07;;;9.50;;
11084;SDS011;5596;46.826;8.650;2023-02-15T14:26:59;14.40;;;10.27;;
11084;SDS011;5596;46.826;8.650;2023-02-15T14:29:29;20.37;;;11.17;;
11084;SDS011;5596;46.826;8.650;2023-02-15T14:32:02;17.43;;;9.90;;
11084;SDS011;5596;46.826;8.650;2023-02-15T14:34:31;15.70;;;10.37;;
11084;SDS011;5596;46.826;8.650;2023-02-15T14:37:02;13.67;;;10.37;;
11084;SDS011;5596;46.826;8.650;2023-02-15T14:39:31;16.10;;;10.77;;
11084;SDS011;5596;46.826;8.650;2023-02-15T14:42:21;23.37;;;10.97;;
11084;SDS011;5596;46.826;8.650;2023-02-15T14:44:52;19.10;;;11.90;;
11084;SDS011;5596;46.826;8.650;2023-02-15T14:47:22;20.43;;;11.77;;
11084;SDS011;5596;46.826;8.650;2023-02-15T14:49:51;17.13;;;11.10;;
11084;SDS011;5596;46.826;8.650;2023-02-15T14:52:18;18.57;;;11.87;;
11084;SDS011;5596;46.826;8.650;2023-02-15T14:55:00;23.43;;;11.90;;
11084;SDS011;5596;46.826;8.650;2023-02-15T14:57:27;17.53;;;11.20;;
11084;SDS011;5596;46.826;8.650;2023-02-15T14:59:56;17.57;;;10.87;;
11084;SDS011;5596;46.826;8.650;2023-02-15T15:02:26;15.90;;;11.10;;
11084;SDS011;5596;46.826;8.650;2023-02-15T15:04:55;15.90;;;10.57;;